Naples Municipal Airport Naples US
ICAO: KAPF
IATA: APF
Category: Medium
Scheduled Services: No

Elevation: 8 ft
TransAlt. 18000 ft.

Airport Communications:
FORT MYERS APP/DEP:119.75
ATIS:134.225
CLNC DEL:118
CTAF:128.5
GND:121.6
MIAMI RDO:123.6
TWR:128.5

KAPF Zoom In..

If you have problems with the map follow the link
https://www.worldairports.se/pages/airport.php?
ICAO=KAPF

Runways:

(A) RW 05 length 6600 ft width 150 ft
---- / hdg 47

(B) RW 14 length 5000 ft width 100 ft
---- / hdg 137

(C) RW 23 length 6600 ft width 150 ft
---- / hdg 227

(D) RW 32 length 5000 ft width 100 ft
---- / hdg 317

Location; KAPF
Day. 20 / Time. 20.53 Zulu
* Altimeter: 30.02
* Temperature: 29° c. 84.2°f.
* Wind from: 180° Speed 11 kn with Gusts up to 20 kn.
Dewpoint: 21° c.
Visibility: 10 Statute Miles.
Clouds: Clear (automated report).

KAPF 202053Z 18011G20KT 10SM CLR 29/21 A3002 RMK AO2 SLP165 T02890206 56022


Wind From 180°
Speed 11 kn.

 
 
jpsmedia.com for Web Design worldairports.se 2019   terms of use